Time;durP1;ratioP1;P1;durP2;ratioP2;P2;SDS_P1;SDS_P2;PMS_P1;PMS_P2;Temp;Humidity;BMP_temperature;BMP_pressure;BME280_temperature;BME280_humidity;BME280_pressure;Samples;Min_cycle;Max_cycle;Signal;HPM_P1;HPM_P2
2024/01/13 00:00:04;;;;;;;37.95;15.43;;;2.30;99.90;;;4.08;100.00;101684.84;4935398;29;20039;-78
2024/01/13 00:02:30;;;;;;;34.47;15.60;;;2.30;99.90;;;4.00;100.00;101696.41;4938615;28;20063;-77
2024/01/13 00:04:56;;;;;;;36.10;15.25;;;2.30;99.90;;;3.98;100.00;101685.75;4953212;28;20039;-78
2024/01/13 00:07:22;;;;;;;35.15;14.75;;;2.30;99.90;;;4.09;100.00;101676.59;4933131;29;20401;-76
2024/01/13 00:09:47;;;;;;;35.72;15.68;;;2.30;99.90;;;4.07;100.00;101677.75;4936236;29;20483;-77
2024/01/13 00:12:13;;;;;;;37.60;16.38;;;2.30;99.90;;;4.11;100.00;101673.75;4937972;28;20372;-76
2024/01/13 00:14:39;;;;;;;38.83;15.85;;;2.30;99.90;;;4.24;100.00;101671.56;4947473;29;20043;-76
2024/01/13 00:17:04;;;;;;;36.17;16.80;;;2.30;99.90;;;4.03;100.00;101674.50;4940119;28;20377;-76
2024/01/13 00:19:30;;;;;;;40.45;16.38;;;2.30;99.90;;;4.27;100.00;101673.13;4935255;29;20048;-77
2024/01/13 00:21:56;;;;;;;36.97;15.35;;;2.30;99.90;;;4.17;100.00;101667.78;4935015;29;20051;-76
2024/01/13 00:24:21;;;;;;;38.42;17.73;;;2.30;99.90;;;4.21;100.00;101671.00;4950304;28;20047;-77
2024/01/13 00:26:47;;;;;;;40.03;16.88;;;2.30;99.90;;;4.22;100.00;101660.06;4935347;29;20040;-76
2024/01/13 00:29:13;;;;;;;49.13;18.33;;;2.30;99.90;;;4.07;100.00;101661.53;4947657;29;20399;-76
2024/01/13 00:31:38;;;;;;;40.83;17.55;;;2.30;99.90;;;3.86;100.00;101659.94;4938545;28;20046;-76
2024/01/13 00:34:04;;;;;;;40.15;17.67;;;2.30;99.90;;;4.18;100.00;101642.47;4935197;29;20032;-76
2024/01/13 00:36:30;;;;;;;41.35;17.52;;;2.30;99.90;;;4.10;100.00;101636.94;4949747;28;20043;-76
2024/01/13 00:38:56;;;;;;;49.45;18.50;;;2.30;99.90;;;3.97;100.00;101629.19;4943275;29;20392;-76
2024/01/13 00:41:21;;;;;;;42.65;17.98;;;2.30;99.90;;;4.08;100.00;101642.50;4953580;28;20083;-76
2024/01/13 00:43:47;;;;;;;41.92;17.23;;;2.30;99.90;;;4.09;100.00;101638.81;4939440;29;20420;-76
2024/01/13 00:46:13;;;;;;;42.25;17.95;;;2.30;99.90;;;4.22;100.00;101637.59;4935306;28;20054;-76
2024/01/13 00:48:39;;;;;;;44.90;19.15;;;2.30;99.90;;;3.94;100.00;101637.56;4935465;29;20191;-77
2024/01/13 00:51:07;;;;;;;43.90;17.73;;;2.30;99.90;;;4.12;100.00;101641.19;4949605;28;20380;-76
2024/01/13 00:53:33;;;;;;;41.35;17.42;;;2.30;99.90;;;4.09;100.00;101638.81;4942089;28;20059;-76
2024/01/13 00:55:59;;;;;;;43.30;17.42;;;2.30;99.90;;;4.12;100.00;101635.78;4938845;29;20039;-76
2024/01/13 00:58:24;;;;;;;42.63;16.92;;;2.30;99.90;;;4.14;100.00;101628.38;4939312;29;20114;-77
2024/01/13 01:00:50;;;;;;;44.75;18.48;;;2.30;99.90;;;3.97;100.00;101630.03;4941999;28;20102;-77
2024/01/13 01:03:16;;;;;;;37.35;17.08;;;2.30;99.90;;;4.07;100.00;101630.00;4949243;29;20047;-76
2024/01/13 01:05:42;;;;;;;43.88;17.55;;;2.30;99.90;;;4.02;100.00;101637.69;4958090;28;20047;-76
2024/01/13 01:08:07;;;;;;;42.35;17.58;;;2.30;99.90;;;4.24;100.00;101639.16;4938953;28;20086;-77
2024/01/13 01:10:33;;;;;;;43.35;18.08;;;2.30;99.90;;;4.27;100.00;101636.13;4938681;29;20038;-76
2024/01/13 01:12:59;;;;;;;48.10;17.23;;;2.30;99.90;;;4.18;100.00;101627.09;4938559;29;20044;-76
2024/01/13 01:15:24;;;;;;;45.08;18.38;;;2.30;99.90;;;4.12;100.00;101627.69;4938447;29;20048;-77
2024/01/13 01:17:50;;;;;;;45.38;18.17;;;2.30;99.90;;;4.01;100.00;101628.75;4948652;29;20501;-76
2024/01/13 01:20:16;;;;;;;42.90;17.13;;;2.30;99.90;;;4.29;100.00;101627.91;4963499;28;20047;-76
2024/01/13 01:22:41;;;;;;;38.55;16.80;;;2.30;99.90;;;4.14;100.00;101614.88;4946640;29;20039;-76
2024/01/13 01:25:07;;;;;;;38.30;16.70;;;2.30;99.90;;;4.33;100.00;101634.69;4938156;28;20043;-76
2024/01/13 01:27:33;;;;;;;38.15;16.23;;;2.30;99.90;;;4.11;100.00;101619.72;4937618;29;20061;-76
2024/01/13 01:29:59;;;;;;;36.95;15.93;;;2.30;99.90;;;4.16;100.00;101612.03;4938493;29;20039;-77
2024/01/13 01:32:24;;;;;;;36.90;16.40;;;2.30;99.90;;;4.14;100.00;101617.59;4953068;28;20034;-77
2024/01/13 01:34:50;;;;;;;37.17;15.40;;;2.30;99.90;;;4.27;100.00;101613.69;4956304;28;20050;-77
2024/01/13 01:37:16;;;;;;;34.20;15.50;;;2.30;99.90;;;4.13;100.00;101615.88;4940908;28;20386;-76
2024/01/13 01:39:41;;;;;;;39.63;15.75;;;2.30;99.90;;;4.01;100.00;101607.13;4948389;28;20491;-76
2024/01/13 01:42:07;;;;;;;31.52;14.13;;;2.30;99.90;;;4.04;100.00;101608.69;4942777;28;20031;-76
2024/01/13 01:44:33;;;;;;;30.15;12.93;;;2.30;99.90;;;4.11;100.00;101604.38;4952667;28;20040;-76
2024/01/13 01:47:02;;;;;;;29.38;13.52;;;2.30;99.90;;;4.15;100.00;101594.97;4937989;29;20044;-76
2024/01/13 01:49:28;;;;;;;31.05;13.30;;;2.30;99.90;;;4.18;100.00;101597.38;4941617;28;20032;-76
2024/01/13 01:51:53;;;;;;;27.00;12.32;;;2.30;99.90;;;4.27;100.00;101598.31;4937877;29;20087;-77
2024/01/13 01:54:20;;;;;;;24.92;11.88;;;2.30;99.90;;;4.15;100.00;101573.38;4937219;29;20483;-77
2024/01/13 01:56:46;;;;;;;26.70;12.52;;;2.30;99.90;;;3.96;100.00;101574.34;4947953;29;20310;-76
2024/01/13 01:59:13;;;;;;;24.77;11.30;;;2.30;99.90;;;4.10;100.00;101570.28;4959217;28;20055;-76
2024/01/13 02:01:39;;;;;;;26.35;11.40;;;2.30;99.90;;;4.16;100.00;101580.47;4952289;28;20052;-77
2024/01/13 02:04:04;;;;;;;23.90;10.98;;;2.30;99.90;;;4.25;100.00;101575.19;4937679;28;20043;-76
2024/01/13 02:06:30;;;;;;;24.42;11.07;;;2.30;99.90;;;4.21;100.00;101557.53;4948004;29;20149;-77
2024/01/13 02:08:56;;;;;;;23.35;11.77;;;2.30;99.90;;;4.22;100.00;101554.72;4937426;29;20035;-77
2024/01/13 02:11:22;;;;;;;24.02;10.90;;;2.30;99.90;;;4.24;100.00;101544.59;4937524;28;20071;-76
2024/01/13 02:13:50;;;;;;;23.15;10.43;;;2.30;99.90;;;3.97;100.00;101545.47;4941349;29;20035;-76
2024/01/13 02:16:16;;;;;;;24.17;11.65;;;2.30;99.90;;;4.16;100.00;101566.97;4944962;28;20590;-77
2024/01/13 02:18:42;;;;;;;22.63;11.30;;;2.30;99.90;;;4.08;100.00;101561.47;4941526;29;20031;-75
2024/01/13 02:21:12;;;;;;;24.30;10.13;;;2.30;99.90;;;4.18;100.00;101559.56;4945505;28;20206;-76
2024/01/13 02:23:38;;;;;;;22.15;10.25;;;2.30;99.90;;;4.07;100.00;101554.38;4937940;29;20064;-76
2024/01/13 02:26:04;;;;;;;20.90;9.60;;;2.30;99.90;;;4.05;100.00;101552.81;4941129;29;20068;-77
2024/01/13 02:28:30;;;;;;;23.92;10.55;;;2.20;99.90;;;4.30;100.00;101554.78;4938130;28;20039;-76
2024/01/13 02:30:56;;;;;;;17.73;8.85;;;2.20;99.90;;;4.12;100.00;101554.75;4937400;29;20396;-76
2024/01/13 02:33:22;;;;;;;20.02;9.32;;;2.20;99.90;;;4.00;100.00;101539.78;4950139;29;20039;-76
2024/01/13 02:35:48;;;;;;;19.55;8.82;;;2.20;99.90;;;4.15;100.00;101537.41;4952306;28;20537;-76
2024/01/13 02:38:13;;;;;;;21.17;9.80;;;2.20;99.90;;;3.98;100.00;101545.34;4958879;28;20036;-76
2024/01/13 02:40:39;;;;;;;18.83;9.07;;;2.20;99.90;;;3.92;100.00;101545.94;4949405;28;20035;-77
2024/01/13 02:43:05;;;;;;;19.52;8.88;;;2.20;99.90;;;3.97;100.00;101527.44;4937162;29;20099;-77
2024/01/13 02:45:31;;;;;;;17.98;8.77;;;2.20;99.90;;;3.96;100.00;101516.78;4943639;29;20043;-77
2024/01/13 02:48:16;;;;;;;18.35;8.05;;;2.20;99.90;;;3.85;100.00;101512.47;4938666;29;20035;-76
2024/01/13 02:50:53;;;;;;;18.92;9.10;;;2.20;99.90;;;3.92;100.00;101513.53;4943730;28;20050;-76
2024/01/13 02:53:18;;;;;;;19.65;9.07;;;2.20;99.90;;;3.85;100.00;101507.88;4936542;29;20127;-77
2024/01/13 02:55:45;;;;;;;18.95;8.85;;;2.20;99.90;;;3.91;100.00;101490.25;4951709;28;20043;-77
2024/01/13 02:58:11;;;;;;;16.88;8.07;;;2.20;99.90;;;3.76;100.00;101497.16;4936495;29;20065;-76
2024/01/13 03:00:37;;;;;;;16.77;8.32;;;2.20;99.90;;;3.85;100.00;101494.41;4936633;29;20478;-77
2024/01/13 03:03:02;;;;;;;18.23;8.05;;;2.20;99.90;;;4.07;100.00;101494.97;4936860;28;20083;-76
2024/01/13 03:05:28;;;;;;;16.85;8.30;;;2.20;99.90;;;3.81;100.00;101492.13;4940364;28;20642;-76
2024/01/13 03:07:54;;;;;;;15.07;7.50;;;2.20;99.90;;;3.63;100.00;101492.09;4934902;29;20383;-77
2024/01/13 03:10:19;;;;;;;15.82;7.75;;;2.10;99.90;;;3.63;100.00;101492.97;4941792;29;20058;-76
2024/01/13 03:12:45;;;;;;;16.15;7.40;;;2.20;99.90;;;3.47;100.00;101476.56;4942378;28;20044;-76
2024/01/13 03:15:11;;;;;;;15.00;7.18;;;2.10;99.90;;;3.86;100.00;101477.19;4956576;28;20372;-76
2024/01/13 03:17:37;;;;;;;16.00;7.93;;;2.10;99.90;;;3.84;100.00;101465.69;4936742;28;20075;-76
2024/01/13 03:20:03;;;;;;;17.10;7.38;;;2.10;99.90;;;3.89;100.00;101466.09;4939130;29;20042;-77
2024/01/13 03:22:29;;;;;;;13.70;7.05;;;2.10;99.90;;;3.75;100.00;101466.63;4939787;29;20042;-77
2024/01/13 03:24:56;;;;;;;16.23;8.35;;;2.00;99.90;;;3.71;100.00;101449.88;4945556;28;20027;-77
2024/01/13 03:27:22;;;;;;;13.98;6.93;;;2.00;99.90;;;3.70;100.00;101458.97;4942981;28;20476;-77
2024/01/13 03:29:47;;;;;;;14.15;6.80;;;2.10;99.90;;;3.60;100.00;101447.41;4951378;28;20086;-76
2024/01/13 03:32:13;;;;;;;13.98;7.13;;;2.10;99.90;;;3.83;100.00;101450.50;4936458;29;20036;-76
2024/01/13 03:34:39;;;;;;;16.40;7.85;;;2.00;99.90;;;3.83;100.00;101444.25;4950695;28;20472;-77
2024/01/13 03:37:06;;;;;;;14.63;7.40;;;2.00;99.90;;;3.51;100.00;101429.41;4964364;28;20486;-76
2024/01/13 03:39:31;;;;;;;13.50;7.50;;;2.00;99.90;;;3.88;100.00;101448.19;4941467;29;20396;-77
2024/01/13 03:41:57;;;;;;;15.02;7.32;;;2.00;99.90;;;3.94;100.00;101451.28;4941317;29;20178;-78
2024/01/13 03:44:23;;;;;;;17.00;7.97;;;2.10;99.90;;;3.77;100.00;101450.25;4936359;29;20042;-76
2024/01/13 03:46:49;;;;;;;16.30;7.28;;;2.10;99.90;;;3.83;100.00;101428.03;4938210;29;20058;-76
2024/01/13 03:49:15;;;;;;;15.32;6.82;;;2.00;99.90;;;3.87;100.00;101432.16;4938311;28;20127;-76
2024/01/13 03:51:41;;;;;;;13.05;6.30;;;2.10;99.90;;;3.69;100.00;101437.50;4943683;29;20044;-75
2024/01/13 03:54:06;;;;;;;13.98;6.57;;;2.00;99.90;;;3.78;100.00;101435.75;4955260;28;20052;-76
2024/01/13 03:56:32;;;;;;;15.32;6.97;;;2.00;99.90;;;3.74;100.00;101432.53;4935519;28;20507;-75
2024/01/13 03:58:58;;;;;;;13.88;6.57;;;2.00;99.90;;;3.68;100.00;101449.31;4936224;29;20050;-76
2024/01/13 04:01:24;;;;;;;14.80;6.07;;;2.00;99.90;;;3.72;100.00;101432.66;4954501;28;20051;-76
2024/01/13 04:03:49;;;;;;;11.80;6.25;;;2.00;99.90;;;3.65;100.00;101433.44;4935807;29;20424;-77
2024/01/13 04:06:15;;;;;;;13.65;6.70;;;2.00;99.90;;;3.72;100.00;101439.94;4937490;29;20050;-76
2024/01/13 04:08:41;;;;;;;13.52;6.38;;;2.00;99.90;;;3.64;100.00;101439.81;4938360;28;20507;-76
2024/01/13 04:11:08;;;;;;;14.32;6.43;;;2.00;99.90;;;3.87;100.00;101433.00;4959825;28;20113;-76
2024/01/13 04:13:35;;;;;;;12.23;5.97;;;2.00;99.90;;;3.74;100.00;101422.56;4935843;29;20036;-76
2024/01/13 04:16:01;;;;;;;11.95;5.93;;;2.00;99.90;;;3.78;100.00;101433.91;4935525;29;20469;-77
2024/01/13 04:18:26;;;;;;;11.38;5.95;;;2.00;99.90;;;3.73;100.00;101433.53;4935759;29;20043;-77
2024/01/13 04:20:52;;;;;;;12.18;5.95;;;2.00;99.90;;;3.58;100.00;101425.09;4949895;28;20047;-76
2024/01/13 04:23:18;;;;;;;12.00;5.82;;;2.00;99.90;;;3.86;100.00;101423.19;4935524;29;20495;-77
2024/01/13 04:25:44;;;;;;;12.63;5.60;;;2.00;99.90;;;3.61;100.00;101430.19;4946067;28;20050;-77
2024/01/13 04:28:09;;;;;;;11.57;5.13;;;2.00;99.90;;;3.71;100.00;101420.19;4946643;28;20391;-77
2024/01/13 04:30:35;;;;;;;11.55;5.65;;;2.00;99.90;;;3.77;100.00;101413.34;4935392;29;20044;-76
2024/01/13 04:33:01;;;;;;;10.57;5.22;;;1.90;99.90;;;3.67;100.00;101399.91;4941087;29;20513;-76
2024/01/13 04:35:28;;;;;;;9.63;5.00;;;1.90;99.90;;;3.74;100.00;101413.66;4938354;28;20094;-76
2024/01/13 04:37:57;;;;;;;9.15;4.30;;;1.90;99.90;;;3.21;100.00;101405.28;4934914;29;20036;-77
2024/01/13 04:40:23;;;;;;;10.15;4.35;;;2.00;99.90;;;3.79;100.00;101405.94;4935316;29;20503;-77
2024/01/13 04:42:49;;;;;;;9.15;4.30;;;1.90;99.90;;;3.67;100.00;101399.03;4945337;28;20113;-76
2024/01/13 04:45:14;;;;;;;9.13;4.22;;;1.90;99.90;;;3.69;100.00;101394.34;4938315;29;20059;-77
2024/01/13 04:47:40;;;;;;;9.20;4.40;;;1.90;99.90;;;3.70;100.00;101391.50;4934704;28;20125;-78
2024/01/13 04:50:06;;;;;;;9.88;4.13;;;1.90;99.90;;;3.84;100.00;101398.22;4939058;29;20051;-77
2024/01/13 04:52:32;;;;;;;9.05;4.47;;;1.90;99.90;;;3.41;100.00;101389.84;4935138;29;20046;-76
2024/01/13 04:54:58;;;;;;;11.18;4.97;;;2.00;99.90;;;3.50;100.00;101381.84;4934662;29;20474;-76
2024/01/13 04:57:24;;;;;;;9.25;4.53;;;1.90;99.90;;;3.48;100.00;101390.09;4938985;29;20040;-77
2024/01/13 04:59:49;;;;;;;8.38;4.22;;;1.90;99.90;;;3.47;100.00;101374.91;4933633;28;20134;-78
2024/01/13 05:02:15;;;;;;;9.45;4.28;;;1.90;99.90;;;3.53;100.00;101390.47;4940524;29;20487;-76
2024/01/13 05:04:41;;;;;;;8.43;3.80;;;1.90;99.90;;;3.63;100.00;101381.47;4954344;28;20043;-78
2024/01/13 05:07:09;;;;;;;8.32;4.07;;;1.90;99.90;;;3.60;100.00;101379.94;4935254;28;20371;-78
2024/01/13 05:09:35;;;;;;;7.63;3.53;;;1.90;99.90;;;3.61;100.00;101392.44;4935502;29;20570;-78
2024/01/13 05:12:01;;;;;;;7.65;3.50;;;1.90;99.90;;;3.56;100.00;101378.50;4935237;29;20031;-78
2024/01/13 05:14:26;;;;;;;10.07;3.55;;;1.90;99.90;;;3.51;100.00;101381.69;4935239;29;20460;-78
2024/01/13 05:16:52;;;;;;;6.85;3.25;;;1.90;99.90;;;3.57;100.00;101378.38;4939946;29;20420;-76
2024/01/13 05:19:18;;;;;;;7.13;3.08;;;1.90;99.90;;;3.63;100.00;101389.56;4949939;28;20042;-79
2024/01/13 05:21:43;;;;;;;7.28;3.03;;;1.90;99.90;;;3.76;100.00;101383.78;4939323;28;20065;-79
2024/01/13 05:24:10;;;;;;;6.13;2.70;;;1.90;99.90;;;3.45;100.00;101374.22;4954844;28;20863;-78
2024/01/13 05:26:37;;;;;;;4.88;2.45;;;1.90;99.90;;;3.59;100.00;101378.25;4939422;29;20042;-78
2024/01/13 05:29:03;;;;;;;8.13;2.97;;;1.90;99.90;;;3.56;100.00;101373.97;4933793;29;20100;-78
2024/01/13 05:31:29;;;;;;;8.38;2.50;;;1.90;99.90;;;3.62;100.00;101380.63;4934860;29;20044;-76
2024/01/13 05:33:55;;;;;;;6.63;2.53;;;1.90;99.90;;;3.65;100.00;101372.22;4934894;29;20043;-76
2024/01/13 05:36:22;;;;;;;5.05;2.40;;;1.90;99.90;;;3.62;100.00;101368.97;4934916;29;20948;-79
2024/01/13 05:38:48;;;;;;;5.70;2.47;;;1.90;99.90;;;3.59;100.00;101376.38;4945017;28;20122;-79
2024/01/13 05:41:14;;;;;;;4.53;2.15;;;1.90;99.90;;;3.62;100.00;101360.88;4947744;29;20102;-78
2024/01/13 05:43:40;;;;;;;4.03;1.98;;;1.90;99.90;;;3.59;100.00;101380.94;4958953;28;20032;-78
2024/01/13 05:46:05;;;;;;;5.60;2.03;;;1.90;99.90;;;3.46;100.00;101367.81;4941705;29;20043;-78
2024/01/13 05:48:31;;;;;;;4.90;2.20;;;1.90;99.90;;;3.60;100.00;101374.53;4938146;29;20039;-77
2024/01/13 05:50:57;;;;;;;4.38;2.30;;;1.90;99.90;;;3.46;100.00;101359.72;4937310;28;20039;-78
2024/01/13 05:53:23;;;;;;;4.28;2.38;;;1.90;99.90;;;3.60;100.00;101347.56;4943364;28;20103;-78
2024/01/13 05:55:49;;;;;;;5.45;2.22;;;1.90;99.90;;;3.49;100.00;101327.03;4938113;29;20040;-78
2024/01/13 05:58:14;;;;;;;5.72;2.30;;;1.90;99.90;;;3.66;100.00;101335.28;4945960;28;20059;-78
2024/01/13 06:00:40;;;;;;;4.50;2.35;;;1.90;99.90;;;3.67;100.00;101350.47;4937963;29;20645;-78
2024/01/13 06:03:06;;;;;;;4.45;2.35;;;1.90;99.90;;;3.74;100.00;101349.69;4937791;29;20138;-78
2024/01/13 06:05:31;;;;;;;4.78;2.33;;;1.90;99.90;;;3.62;100.00;101344.69;4937616;28;20047;-78
2024/01/13 06:07:57;;;;;;;4.72;2.83;;;1.90;99.90;;;3.64;100.00;101331.88;4952451;28;20038;-78
2024/01/13 06:10:23;;;;;;;5.32;2.72;;;1.90;99.90;;;3.51;100.00;101341.22;4936868;29;20043;-78
2024/01/13 06:12:49;;;;;;;6.72;3.20;;;1.80;99.90;;;3.61;100.00;101349.25;4940650;28;20031;-78
2024/01/13 06:15:16;;;;;;;5.80;3.20;;;1.90;99.90;;;3.67;100.00;101336.97;4938936;29;20113;-78
2024/01/13 06:17:42;;;;;;;6.90;3.38;;;1.80;99.90;;;3.60;100.00;101340.28;4940563;28;20082;-78
2024/01/13 06:20:09;;;;;;;8.18;3.15;;;1.90;99.90;;;3.84;100.00;101346.06;4949877;28;20114;-78
2024/01/13 06:22:35;;;;;;;5.23;2.70;;;1.90;99.90;;;3.63;100.00;101324.78;4942507;29;20087;-78
2024/01/13 06:25:00;;;;;;;5.72;3.22;;;1.90;99.90;;;3.76;100.00;101336.06;4957748;28;20294;-77
2024/01/13 06:27:26;;;;;;;5.70;3.28;;;1.90;99.90;;;3.79;100.00;101327.66;4938277;29;20445;-78
2024/01/13 06:29:52;;;;;;;7.30;3.13;;;1.90;99.90;;;3.78;100.00;101330.50;4956545;28;20039;-78
2024/01/13 06:32:17;;;;;;;4.40;2.60;;;2.00;99.90;;;3.54;100.00;101322.03;4938048;29;20043;-77
2024/01/13 06:34:43;;;;;;;7.40;2.88;;;2.00;99.90;;;3.76;100.00;101330.66;4960309;28;20515;-78
2024/01/13 06:37:09;;;;;;;7.30;2.88;;;2.00;99.90;;;3.87;100.00;101326.88;4945519;28;20093;-77
2024/01/13 06:39:34;;;;;;;5.40;2.53;;;2.00;99.90;;;3.83;100.00;101314.66;4940572;28;20035;-78
2024/01/13 06:42:05;;;;;;;5.88;2.53;;;1.90;99.90;;;3.64;100.00;101315.69;4941278;29;20040;-78
2024/01/13 06:44:34;;;;;;;5.63;2.45;;;2.00;99.90;;;3.71;100.00;101319.47;4945117;28;20126;-77
2024/01/13 06:47:02;;;;;;;6.07;2.70;;;2.00;99.90;;;3.85;100.00;101310.00;4937438;28;20149;-77
2024/01/13 06:49:28;;;;;;;4.35;2.10;;;2.00;99.90;;;3.58;100.00;101291.03;4951922;28;20051;-78
2024/01/13 06:51:54;;;;;;;4.13;2.10;;;2.00;99.90;;;3.74;100.00;101295.72;4937177;28;20040;-78
2024/01/13 06:54:19;;;;;;;3.88;2.03;;;2.00;99.90;;;3.75;100.00;101293.88;4938327;28;20055;-77
2024/01/13 06:56:45;;;;;;;5.00;2.38;;;2.00;99.90;;;3.76;100.00;101278.50;4951421;28;20031;-78
2024/01/13 06:59:11;;;;;;;4.20;2.10;;;2.00;99.90;;;3.88;100.00;101275.41;4936776;29;20040;-77
2024/01/13 07:01:37;;;;;;;4.53;1.85;;;2.00;99.90;;;3.69;100.00;101276.44;4943117;28;20475;-76
2024/01/13 07:04:02;;;;;;;4.22;2.13;;;1.90;99.90;;;3.64;100.00;101254.47;4950402;28;20039;-79
2024/01/13 07:06:28;;;;;;;5.03;2.38;;;1.90;99.90;;;3.70;100.00;101259.25;4965148;28;20039;-79
2024/01/13 07:08:57;;;;;;;5.10;2.20;;;1.90;99.90;;;3.76;100.00;101228.09;4951609;28;20428;-79
2024/01/13 07:11:23;;;;;;;5.30;2.40;;;1.90;99.90;;;3.80;100.00;101236.69;4945961;29;20043;-80
2024/01/13 07:13:49;;;;;;;4.60;2.20;;;1.90;99.90;;;3.71;100.00;101238.50;4952279;28;20067;-77
2024/01/13 07:16:14;;;;;;;4.90;2.50;;;1.90;99.90;;;3.72;100.00;101237.50;4949681;28;20050;-76
2024/01/13 07:18:41;;;;;;;5.18;2.67;;;1.90;99.90;;;3.63;100.00;101222.25;4948401;29;20046;-78
2024/01/13 07:21:06;;;;;;;5.05;2.30;;;1.90;99.90;;;3.64;100.00;101210.44;4946224;28;20051;-78
2024/01/13 07:23:33;;;;;;;5.32;2.30;;;1.90;99.90;;;3.71;100.00;101219.59;4936213;28;20094;-78
2024/01/13 07:26:00;;;;;;;7.97;2.92;;;1.90;99.90;;;3.65;100.00;101199.50;4951528;28;20039;-78
2024/01/13 07:28:26;;;;;;;4.72;2.05;;;1.90;99.90;;;3.62;100.00;101198.97;4936032;29;20067;-77
2024/01/13 07:30:51;;;;;;;4.10;2.17;;;1.90;99.90;;;3.78;100.00;101200.94;4936099;29;20479;-78
2024/01/13 07:33:17;;;;;;;5.13;2.45;;;1.90;99.90;;;3.68;100.00;101198.31;4939651;28;20031;-76
2024/01/13 07:35:43;;;;;;;4.90;2.40;;;1.90;99.90;;;3.74;100.00;101205.81;4943929;28;20372;-79
2024/01/13 07:38:09;;;;;;;4.85;2.25;;;1.90;99.90;;;3.66;100.00;101201.19;4942842;28;20043;-76
2024/01/13 07:40:35;;;;;;;5.82;2.38;;;1.90;99.90;;;3.76;100.00;101194.84;4937606;29;20035;-79
2024/01/13 07:43:01;;;;;;;5.03;2.40;;;1.90;99.90;;;3.96;100.00;101204.44;4937895;28;20103;-78
2024/01/13 07:45:27;;;;;;;3.83;2.13;;;1.90;99.90;;;3.91;100.00;101203.19;4936277;29;20432;-81
2024/01/13 07:47:52;;;;;;;4.32;2.30;;;1.90;99.90;;;3.99;100.00;101206.81;4944911;28;20447;-81
2024/01/13 07:50:18;;;;;;;4.88;2.30;;;1.90;99.90;;;3.90;100.00;101207.78;4949295;29;20047;-77
2024/01/13 07:52:44;;;;;;;4.72;2.25;;;1.90;99.90;;;3.82;100.00;101213.97;4956269;28;20062;-77
2024/01/13 07:55:10;;;;;;;4.68;2.10;;;1.90;99.90;;;3.86;100.00;101220.72;4942191;29;20047;-76
2024/01/13 07:57:36;;;;;;;4.55;2.50;;;2.00;99.90;;;3.88;100.00;101215.19;4940330;28;20475;-77
2024/01/13 08:00:03;;;;;;;4.45;2.45;;;2.00;99.90;;;3.80;100.00;101207.88;4951561;28;20046;-77
2024/01/13 08:02:38;;;;;;;4.13;2.20;;;2.00;99.90;;;3.97;100.00;101194.47;4946764;28;20044;-76
2024/01/13 08:05:04;;;;;;;4.55;2.50;;;2.00;99.90;;;3.82;100.00;101200.47;4936617;29;20101;-78
2024/01/13 08:07:30;;;;;;;6.60;3.25;;;2.00;99.90;;;3.92;100.00;101194.97;4942732;28;20490;-77
2024/01/13 08:09:55;;;;;;;5.80;2.58;;;2.10;99.90;;;3.93;100.00;101191.25;4941518;29;20032;-77
2024/01/13 08:12:21;;;;;;;5.78;2.30;;;2.00;99.90;;;4.21;100.00;101191.06;4947692;28;20044;-77
2024/01/13 08:14:47;;;;;;;4.32;2.40;;;2.10;99.90;;;3.93;100.00;101190.38;4939934;29;20043;-77
2024/01/13 08:17:13;;;;;;;3.78;2.13;;;2.10;99.90;;;3.87;100.00;101184.63;4948159;29;20039;-77
2024/01/13 08:19:39;;;;;;;4.25;2.10;;;2.10;99.90;;;4.05;100.00;101191.81;4957608;28;20043;-76
2024/01/13 08:22:04;;;;;;;3.53;1.83;;;2.20;99.90;;;4.02;100.00;101190.28;4938207;29;20043;-77
2024/01/13 08:24:31;;;;;;;3.25;1.83;;;2.20;99.90;;;3.89;100.00;101189.88;4950032;28;20043;-75
2024/01/13 08:26:57;;;;;;;2.78;1.60;;;2.20;99.90;;;4.00;100.00;101186.91;4955903;28;20039;-74
2024/01/13 08:29:23;;;;;;;3.00;1.60;;;2.20;99.90;;;4.00;100.00;101184.19;4944413;28;20173;-75
2024/01/13 08:31:50;;;;;;;3.20;1.60;;;2.30;99.90;;;3.94;100.00;101179.44;4935782;29;20054;-75
2024/01/13 08:34:16;;;;;;;3.45;1.60;;;2.30;99.90;;;4.06;100.00;101176.47;4936117;29;20448;-74
2024/01/13 08:36:43;;;;;;;3.33;1.25;;;2.40;99.90;;;3.97;100.00;101183.66;4940442;28;20068;-74
2024/01/13 08:39:10;;;;;;;3.42;1.50;;;2.40;99.90;;;4.07;100.00;101175.44;4949962;28;20145;-74
2024/01/13 08:41:36;;;;;;;3.58;1.77;;;2.40;99.90;;;4.20;100.00;101175.88;4935074;29;20047;-75
2024/01/13 08:44:05;;;;;;;2.90;1.40;;;2.50;99.90;;;4.26;100.00;101175.22;4938686;29;20032;-74
2024/01/13 08:46:30;;;;;;;3.20;1.60;;;2.40;99.90;;;4.15;100.00;101162.84;4941567;28;20201;-74
2024/01/13 08:48:56;;;;;;;3.13;1.50;;;2.40;99.90;;;4.08;100.00;101188.81;4942069;29;20147;-75
2024/01/13 08:51:22;;;;;;;4.13;1.38;;;2.50;99.90;;;4.12;100.00;101198.28;4935913;29;20368;-75
2024/01/13 08:53:48;;;;;;;2.90;1.50;;;2.50;99.90;;;3.77;100.00;101170.41;4939608;29;20503;-75
2024/01/13 08:56:16;;;;;;;3.28;1.80;;;2.50;99.90;;;4.27;100.00;101181.47;4936968;28;20123;-75
2024/01/13 08:58:42;;;;;;;4.60;2.83;;;2.60;99.90;;;4.39;100.00;101169.34;4950360;28;20036;-75
2024/01/13 09:01:08;;;;;;;3.13;1.52;;;2.60;99.90;;;4.28;100.00;101153.44;4940336;29;20077;-75
2024/01/13 09:03:33;;;;;;;3.17;1.52;;;2.60;99.90;;;4.27;100.00;101122.03;4935838;29;20035;-77
2024/01/13 09:06:00;;;;;;;3.08;1.70;;;2.70;99.90;;;4.31;100.00;101128.81;4940179;29;20047;-76
2024/01/13 09:08:26;;;;;;;3.13;1.58;;;2.80;99.90;;;4.35;100.00;101126.59;4938760;28;20048;-75
2024/01/13 09:10:51;;;;;;;3.55;1.88;;;2.80;99.90;;;4.53;100.00;101129.22;4935028;29;20066;-75
2024/01/13 09:13:17;;;;;;;3.53;1.65;;;2.90;99.90;;;4.63;100.00;101127.19;4935444;29;20036;-76
2024/01/13 09:15:43;;;;;;;3.70;2.00;;;3.00;99.90;;;4.34;100.00;101116.81;4938277;28;20080;-76
2024/01/13 09:18:08;;;;;;;3.83;2.00;;;3.10;99.90;;;4.57;100.00;101122.47;4939170;29;20666;-76
2024/01/13 09:20:35;;;;;;;3.70;2.05;;;3.00;99.90;;;4.31;100.00;101116.13;4938488;29;20035;-74
2024/01/13 09:23:00;;;;;;;5.90;2.60;;;3.00;99.90;;;4.45;100.00;101133.56;4939312;29;20499;-74
2024/01/13 09:25:26;;;;;;;4.90;2.60;;;3.00;99.90;;;4.18;100.00;101107.66;4945398;29;20047;-75
2024/01/13 09:27:52;;;;;;;4.55;2.67;;;2.90;99.90;;;4.25;100.00;101103.28;4947630;28;20040;-76
2024/01/13 09:30:18;;;;;;;5.93;3.33;;;2.90;99.90;;;4.28;100.00;101100.25;4949747;28;20040;-75
2024/01/13 09:32:44;;;;;;;6.13;3.30;;;2.90;99.90;;;4.39;100.00;101093.69;4942381;28;20042;-75
2024/01/13 09:35:10;;;;;;;5.38;3.38;;;2.90;99.90;;;4.07;100.00;101087.19;4956411;28;20043;-76
2024/01/13 09:37:36;;;;;;;5.95;3.05;;;2.90;99.90;;;4.30;100.00;101100.09;4938637;29;20035;-76
2024/01/13 09:40:04;;;;;;;6.40;3.28;;;2.90;99.90;;;4.21;100.00;101107.34;4942938;28;20130;-77
2024/01/13 09:42:52;;;;;;;6.13;3.15;;;2.90;99.90;;;4.16;100.00;101082.69;4966659;28;20082;-77
2024/01/13 09:45:20;;;;;;;6.38;3.42;;;2.90;99.90;;;4.29;100.00;101082.22;4954434;28;20696;-76
2024/01/13 09:47:46;;;;;;;5.57;3.30;;;2.90;99.90;;;4.28;100.00;101069.72;4938063;28;20040;-76
2024/01/13 09:50:12;;;;;;;5.88;3.50;;;2.90;99.90;;;4.47;100.00;101072.09;4944045;29;20055;-75
2024/01/13 09:52:40;;;;;;;7.05;4.10;;;2.90;99.90;;;4.52;100.00;101066.19;4952771;28;20133;-76
2024/01/13 09:55:09;;;;;;;7.38;4.30;;;3.00;99.90;;;4.80;100.00;101075.88;4950099;29;20061;-76
2024/01/13 09:57:35;;;;;;;8.50;4.15;;;3.20;99.90;;;4.58;100.00;101065.53;4957436;28;20037;-77
2024/01/13 10:00:02;;;;;;;6.00;3.30;;;3.30;99.90;;;4.58;100.00;101080.91;4949365;28;20050;-76
2024/01/13 10:02:30;;;;;;;6.53;3.20;;;3.30;99.90;;;4.87;100.00;101080.41;4950135;28;20035;-75
2024/01/13 10:04:56;;;;;;;7.85;3.35;;;3.30;99.90;;;4.97;100.00;101087.53;4965161;28;20118;-77
2024/01/13 10:07:21;;;;;;;6.30;3.45;;;3.50;99.90;;;5.06;100.00;101099.19;4951614;28;20194;-75
2024/01/13 10:09:47;;;;;;;6.13;3.50;;;3.50;99.90;;;4.70;100.00;101109.28;4949594;28;20343;-75